Tucson, AZ (85705)

1:54 AM MST on February 07, 2016 (GMT -0700)
Westwood Terrace Addition | | Change Station
CLOSE
Current Station
Personal Weather Station
Location: Tucson, AZ
Elevation: 2316 ft
Nearby Weather Stations

Elev 2316 ft 32.28 °N, 110.99 °W | Updated 8 minutes ago

Partly Cloudy
Partly Cloudy
38.7 °F
Feels Like 39 °F
N
0.0
Wind Variable Wind from NE

Today
High -- | Low -- °F
--% Chance of Precip.
Yesterday
High -- | Low -- °F
Precip. -- in
Pressure 30.14 in
Visibility 10.0 miles
Clouds Clear
Windchill 39 °F
Dew Point 24 °F
Humidity 56%
Rainfall 0.00 in
Snow Depth Not available.
7:13 AM 6:02 PM
Waning Crescent, 2% visible
METAR KDMA 070758Z AUTO 13011KT 10SM CLR 10/M12 A3020 RMK AO2 SLP206 T01021123 $
Pressure 30.14 in
Visibility 10.0 miles
Clouds Clear
Windchill 39 °F
Dew Point 24 °F
Humidity 56%
Rainfall 0.00 in
Snow Depth Not available.
7:13 AM 6:02 PM
Waning Crescent, 2% visible
METAR KDMA 070758Z AUTO 13011KT 10SM CLR 10/M12 A3020 RMK AO2 SLP206 T01021123 $

10-Day Weather Forecast

Almanac

Astronomy

Feb. 07, 2016 Rise Set
Actual Time
Civil Twilight
Nautical Twilight
Astronomical Twilight
Moon
Length of Visible Light
Length of Day
Tomorrow will be .
, % of the Moon is Illuminated

Today's Extremes

State Highs State Lows

Community

WunderPhotos

Upload Photos

1,891,171 photos uploaded!

WunderBlog® & News

Nearby

Air Quality

  Air Quality AQ Index Pollutant
Not available.

Snow Depth

Station Depth Elevation

Earthquake Activity

City Distance Mag. Time & Date
Minimum magnitude displayed is 2.5.

Coastal Water Temperatures

Place Temperature

Stations

Nearby Weather Stations

Station Location Temp. Windchill Dew Point Humidity Wind Precip. Elev Updated Type
                   

Watches & Warnings

There are currently no watches in effect.